カラチ の空港の天気 - METARとTAF

ジンナー国際空港(カラチ) ( OPKC / KHI ) - パキスタン Karachi
飛行場実況気象(Metar)
観測時間04/25 20:55 PKT (04/25 15:55 UTC)
風向・風速南西 5m/s
視程6000m
天気現象
なし
気温27℃
湿度74%
気圧1008hPa
METAROPKC 251555Z 22010KT 6000 NSC 27/22 Q1008 NOSIG
過去の天気等 Google飛行場航空写真 Wunderground天気予報

過去48時間のMETAR

飛行場予報(TAF)
発表時間: 4/25 15:00 PKT (4/25 10:00 UTC)
予報対象時間: 25日17時 PKT ~ 26日23時 PKT
風向・風速西南西 3m/s 瞬間風速 8m/s
視程6,000m
全天の4割程度の雲 雲底高度 610m
26日10時 PKT ~ 26日12時 PKT に徐々に
風向・風速西南西 3m/s 瞬間風速 8m/s
視程7,000m
少しの雲 雲底高度 610m
TAF OPKC 251000Z 2512/2618 24005G15KT 6000 SCT020 TMEPO 2600/2604 25008KT 4000 FU SCT020
BECMG 2605/2607 24005G15KT 7000 FEW020